Paddy Guidry — WTG3900 — position and weather

sailwx.info

Track history (hours):
 
Tides and Currents Weather Stations Pressure Air Temp Water Temp Dewpoint Dewpoint Depression Visibility Wind Speed Wind Dir Waves Ship Positions

Paddy Guidry

Owner: CAPTAIN TIMMY INC, GALLIANO, LA. More information available from US FCC via Universal Licensing System and Coast Guard Vessel Documentation Center.

Last reported at 2017-Jul-11 03:06 UTC. Time now 2017-Jul-26 22:39 UTC.
Position N 29°33' W 090°21'.
Warning: this ship's position is 15 days out of date.

; draft 1.5 m.

Type: Tug. MMSI: 366998310.

Date/timePositionNaut miles runAvg speedWind from/ knotsBaromVisibWave heightAir tempDewpointWater temp
2017-Jul-11 03:06N 29°33' W 090°21'9 2.0
2017-Jul-10 22:16N 29°34' W 090°32'2 7.1
2017-Jul-10 22:00N 29°34' W 090°34'3 5.8
2017-Jul-10 21:30N 29°35' W 090°37'2 4.7
2017-Jul-10 21:00N 29°36' W 090°40'0 0.1
2017-Jul-10 20:30N 29°36' W 090°40'0 0.0
2017-Jul-10 20:00N 29°36' W 090°40'0 0.6
2017-Jul-10 19:30N 29°36' W 090°40'1 2.7
2017-Jul-10 19:00N 29°37' W 090°42'0 0.0
2017-Jul-10 18:30N 29°37' W 090°42'0 0.1
2017-Jul-10 18:00N 29°37' W 090°42'1 2.0
2017-Jul-10 17:30N 29°36' W 090°41'1 1.2
2017-Jul-10 17:00N 29°36' W 090°40'0 0.1
2017-Jul-10 16:30N 29°36' W 090°40'0 0.3
2017-Jul-10 16:00N 29°36' W 090°40'0 0.0
2017-Jul-10 15:30N 29°36' W 090°40'0 0.0
2017-Jul-10 15:00N 29°36' W 090°40'0 0.0
2017-Jul-10 14:30N 29°36' W 090°40'0 0.0
2017-Jul-10 14:00N 29°36' W 090°40'0 0.5
2017-Jul-10 13:30N 29°36' W 090°40'0 0.0
2017-Jul-10 13:00N 29°36' W 090°40'0 0.0
2017-Jul-10 12:30N 29°36' W 090°40'0 0.0
2017-Jul-10 12:00N 29°36' W 090°40'0 0.0
2017-Jul-10 11:30N 29°36' W 090°40'0 0.0
2017-Jul-10 11:00N 29°36' W 090°40'0 0.0
2017-Jul-10 10:30N 29°36' W 090°40'0 0.0
2017-Jul-10 10:00N 29°36' W 090°40'0 0.0
2017-Jul-10 09:30N 29°36' W 090°40'0 0.0
2017-Jul-10 09:00N 29°36' W 090°40'0 0.0
2017-Jul-10 08:30N 29°36' W 090°40'0 0.0
2017-Jul-10 08:00N 29°36' W 090°40'0 0.0
2017-Jul-10 07:30N 29°36' W 090°40'0 0.0
2017-Jul-10 07:00N 29°36' W 090°40'0 0.0
2017-Jul-10 06:30N 29°36' W 090°40'1 1.9
2017-Jul-10 05:59N 29°36' W 090°39'3 5.8
2017-Jul-10 05:30N 29°35' W 090°36'3 5.8
2017-Jul-10 05:00N 29°34' W 090°33'3 7.0
2017-Jul-10 04:30N 29°34' W 090°29'5 5.8
2017-Jul-10 03:43N 29°34' W 090°23'1 4.0
2017-Jul-10 03:30N 29°34' W 090°23'8 0.2
2017-Jul-08 13:34N 29°34' W 090°32'0 6.7
2017-Jul-08 13:30N 29°34' W 090°32'3 6.4
2017-Jul-08 13:00N 29°35' W 090°36'3 5.6
2017-Jul-08 12:30N 29°36' W 090°39'1 2.0
2017-Jul-08 12:00N 29°36' W 090°40'0 0.2
2017-Jul-08 11:28N 29°36' W 090°40'0 0.0
2017-Jul-08 01:42N 29°36' W 090°40'0 0.6
2017-Jul-08 01:30N 29°36' W 090°40'2 4.0
2017-Jul-08 01:00N 29°37' W 090°42'2 4.2
2017-Jul-08 00:30N 29°35' W 090°43'2 3.8
2017-Jul-08 00:00N 29°34' W 090°45'3 6.4
2017-Jul-07 23:30N 29°32' W 090°48'4 7.2
2017-Jul-07 22:54N 29°32' W 090°53'  
Track history (hours):
 
Tides and Currents Weather Stations Pressure Air Temp Water Temp Dewpoint Dewpoint Depression Visibility Wind Speed Wind Dir Waves Ship Positions

Paddy Guidry

Owner: CAPTAIN TIMMY INC, GALLIANO, LA. More information available from US FCC via Universal Licensing System and Coast Guard Vessel Documentation Center.

Last reported at 2017-Jul-11 03:06 UTC. Time now 2017-Jul-26 22:39 UTC.
Position N 29°33' W 090°21'.
Warning: this ship's position is 15 days out of date.

; draft 1.5 m.

Type: Tug. MMSI: 366998310.

Date/timePositionNaut miles runAvg speedWind from/ knotsBaromVisibWave heightAir tempDewpointWater temp
2017-Jul-11 03:06N 29°33' W 090°21'9 2.0
2017-Jul-10 22:16N 29°34' W 090°32'2 7.1
2017-Jul-10 22:00N 29°34' W 090°34'3 5.8
2017-Jul-10 21:30N 29°35' W 090°37'2 4.7
2017-Jul-10 21:00N 29°36' W 090°40'0 0.1
2017-Jul-10 20:30N 29°36' W 090°40'0 0.0
2017-Jul-10 20:00N 29°36' W 090°40'0 0.6
2017-Jul-10 19:30N 29°36' W 090°40'1 2.7
2017-Jul-10 19:00N 29°37' W 090°42'0 0.0
2017-Jul-10 18:30N 29°37' W 090°42'0 0.1
2017-Jul-10 18:00N 29°37' W 090°42'1 2.0
2017-Jul-10 17:30N 29°36' W 090°41'1 1.2
2017-Jul-10 17:00N 29°36' W 090°40'0 0.1
2017-Jul-10 16:30N 29°36' W 090°40'0 0.3
2017-Jul-10 16:00N 29°36' W 090°40'0 0.0
2017-Jul-10 15:30N 29°36' W 090°40'0 0.0
2017-Jul-10 15:00N 29°36' W 090°40'0 0.0
2017-Jul-10 14:30N 29°36' W 090°40'0 0.0
2017-Jul-10 14:00N 29°36' W 090°40'0 0.5
2017-Jul-10 13:30N 29°36' W 090°40'0 0.0
2017-Jul-10 13:00N 29°36' W 090°40'0 0.0
2017-Jul-10 12:30N 29°36' W 090°40'0 0.0
2017-Jul-10 12:00N 29°36' W 090°40'0 0.0
2017-Jul-10 11:30N 29°36' W 090°40'0 0.0
2017-Jul-10 11:00N 29°36' W 090°40'0 0.0
2017-Jul-10 10:30N 29°36' W 090°40'0 0.0
2017-Jul-10 10:00N 29°36' W 090°40'0 0.0
2017-Jul-10 09:30N 29°36' W 090°40'0 0.0
2017-Jul-10 09:00N 29°36' W 090°40'0 0.0
2017-Jul-10 08:30N 29°36' W 090°40'0 0.0
2017-Jul-10 08:00N 29°36' W 090°40'0 0.0
2017-Jul-10 07:30N 29°36' W 090°40'0 0.0
2017-Jul-10 07:00N 29°36' W 090°40'0 0.0
2017-Jul-10 06:30N 29°36' W 090°40'1 1.9
2017-Jul-10 05:59N 29°36' W 090°39'3 5.8
2017-Jul-10 05:30N 29°35' W 090°36'3 5.8
2017-Jul-10 05:00N 29°34' W 090°33'3 7.0
2017-Jul-10 04:30N 29°34' W 090°29'5 5.8
2017-Jul-10 03:43N 29°34' W 090°23'1 4.0
2017-Jul-10 03:30N 29°34' W 090°23'8 0.2
2017-Jul-08 13:34N 29°34' W 090°32'0 6.7
2017-Jul-08 13:30N 29°34' W 090°32'3 6.4
2017-Jul-08 13:00N 29°35' W 090°36'3 5.6
2017-Jul-08 12:30N 29°36' W 090°39'1 2.0
2017-Jul-08 12:00N 29°36' W 090°40'0 0.2
2017-Jul-08 11:28N 29°36' W 090°40'0 0.0
2017-Jul-08 01:42N 29°36' W 090°40'0 0.6
2017-Jul-08 01:30N 29°36' W 090°40'2 4.0
2017-Jul-08 01:00N 29°37' W 090°42'2 4.2
2017-Jul-08 00:30N 29°35' W 090°43'2 3.8
2017-Jul-08 00:00N 29°34' W 090°45'3 6.4
2017-Jul-07 23:30N 29°32' W 090°48'4 7.2
2017-Jul-07 22:54N 29°32' W 090°53'  

Dump ship's entire track history